createdAt,value
2022-09-17T00:00:51.808Z,10.20
2022-09-17T00:03:18.972Z,10.20
2022-09-17T00:05:45.773Z,10.20
2022-09-17T00:08:15.012Z,10.20
2022-09-17T00:10:44.269Z,10.20
2022-09-17T00:13:11.216Z,10.20
2022-09-17T00:15:44.020Z,10.30
2022-09-17T00:18:11.285Z,10.30
2022-09-17T00:20:40.041Z,10.30
2022-09-17T00:23:08.102Z,10.30
2022-09-17T00:25:38.101Z,10.30
2022-09-17T00:28:04.900Z,10.30
2022-09-17T00:30:31.786Z,10.30
2022-09-17T00:32:58.538Z,10.30
2022-09-17T00:35:25.967Z,10.30
2022-09-17T00:37:52.827Z,10.30
2022-09-17T00:40:20.979Z,10.30
2022-09-17T00:42:48.089Z,10.20
2022-09-17T00:45:15.328Z,10.20
2022-09-17T00:47:58.204Z,10.20
2022-09-17T00:50:40.675Z,10.20
2022-09-17T00:53:14.408Z,10.20
2022-09-17T00:55:46.018Z,10.20
2022-09-17T00:58:15.410Z,10.20
2022-09-17T01:00:42.251Z,10.20
2022-09-17T01:03:09.379Z,10.10
2022-09-17T01:06:05.733Z,10.10
2022-09-17T01:08:44.658Z,10.10
2022-09-17T01:11:35.890Z,10.10
2022-09-17T01:14:30.741Z,10.10
2022-09-17T01:17:08.840Z,10.00
2022-09-17T01:19:44.442Z,10.00
2022-09-17T01:22:23.127Z,10.00
2022-09-17T01:25:24.994Z,9.90
2022-09-17T01:28:21.021Z,9.90
2022-09-17T01:31:05.803Z,9.90
2022-09-17T01:33:41.346Z,9.90
2022-09-17T01:36:41.796Z,9.90
2022-09-17T01:39:34.304Z,9.90
2022-09-17T01:42:15.452Z,9.80
2022-09-17T01:44:52.682Z,9.90
2022-09-17T01:47:39.513Z,9.90
2022-09-17T01:50:26.856Z,9.90
2022-09-17T01:52:56.534Z,9.80
2022-09-17T01:55:29.746Z,9.80
2022-09-17T01:57:59.079Z,9.80
2022-09-17T02:00:25.874Z,9.90
2022-09-17T02:03:02.826Z,9.90
2022-09-17T02:05:48.686Z,9.80
2022-09-17T02:08:23.020Z,9.80
2022-09-17T02:10:57.605Z,9.80
2022-09-17T02:13:42.597Z,9.80
2022-09-17T02:16:25.185Z,9.80
2022-09-17T02:19:17.251Z,9.80
2022-09-17T02:22:02.469Z,9.80
2022-09-17T02:24:44.134Z,9.70
2022-09-17T02:27:24.610Z,9.80
2022-09-17T02:29:52.082Z,9.80
2022-09-17T02:32:18.725Z,9.80
2022-09-17T02:34:46.115Z,9.80
2022-09-17T02:37:12.774Z,9.80
2022-09-17T02:39:39.587Z,9.80
2022-09-17T02:42:25.760Z,9.80
2022-09-17T02:45:59.979Z,9.80
2022-09-17T02:48:46.851Z,9.80
2022-09-17T02:51:27.751Z,9.80
2022-09-17T02:54:13.147Z,9.70
2022-09-17T02:56:52.057Z,9.60
2022-09-17T02:59:24.895Z,9.70
2022-09-17T03:02:17.813Z,9.70
2022-09-17T03:04:46.953Z,9.70
2022-09-17T03:07:14.477Z,9.60
2022-09-17T03:09:43.446Z,9.50
2022-09-17T03:12:13.990Z,9.50
2022-09-17T03:14:40.693Z,9.40
2022-09-17T03:17:07.849Z,9.40
2022-09-17T03:19:34.509Z,9.30
2022-09-17T03:22:01.170Z,9.30
2022-09-17T03:24:27.849Z,9.30
2022-09-17T03:26:55.205Z,9.20
2022-09-17T03:29:22.025Z,9.20
2022-09-17T03:31:48.803Z,9.20
2022-09-17T03:34:15.484Z,9.20
2022-09-17T03:36:42.221Z,9.10
2022-09-17T03:39:08.965Z,9.10
2022-09-17T03:41:35.648Z,9.00
2022-09-17T03:44:02.761Z,9.10
2022-09-17T03:46:29.511Z,9.10
2022-09-17T03:48:56.417Z,9.10
2022-09-17T03:51:23.089Z,9.10
2022-09-17T03:53:49.882Z,9.10
2022-09-17T03:56:17.832Z,9.10
2022-09-17T03:58:44.650Z,9.10
2022-09-17T04:01:11.487Z,9.10
2022-09-17T04:03:39.145Z,9.10
2022-09-17T04:06:06.025Z,9.00
2022-09-17T04:08:32.768Z,9.10
2022-09-17T04:10:59.529Z,9.00
2022-09-17T04:13:26.317Z,9.00
2022-09-17T04:15:53.066Z,9.00
2022-09-17T04:18:19.808Z,8.90
2022-09-17T04:20:46.465Z,8.90
2022-09-17T04:23:13.641Z,8.90
2022-09-17T04:25:40.403Z,8.80
2022-09-17T04:28:07.085Z,8.80
2022-09-17T04:30:33.803Z,8.70
2022-09-17T04:33:00.633Z,8.70
2022-09-17T04:35:27.501Z,8.70
2022-09-17T04:37:55.685Z,8.70
2022-09-17T04:40:23.895Z,8.80
2022-09-17T04:42:55.460Z,8.70
2022-09-17T04:45:23.177Z,8.70
2022-09-17T04:47:52.672Z,8.60
2022-09-17T04:50:20.173Z,8.60
2022-09-17T04:52:47.385Z,8.60
2022-09-17T04:55:15.329Z,8.70
2022-09-17T04:57:52.986Z,8.70
2022-09-17T05:00:22.124Z,8.70
2022-09-17T05:02:51.963Z,8.70
2022-09-17T05:05:19.083Z,8.70
2022-09-17T05:07:46.264Z,8.70
2022-09-17T05:10:15.091Z,8.80
2022-09-17T05:12:41.788Z,8.90
2022-09-17T05:15:08.618Z,8.90
2022-09-17T05:17:35.417Z,8.90
2022-09-17T05:20:02.320Z,8.90
2022-09-17T05:22:29.097Z,8.90
2022-09-17T05:24:55.796Z,8.90
2022-09-17T05:27:22.658Z,8.90
2022-09-17T05:29:49.361Z,8.90
2022-09-17T05:32:16.516Z,9.00
2022-09-17T05:34:43.334Z,8.90
2022-09-17T05:37:13.960Z,8.90
2022-09-17T05:39:40.721Z,9.00
2022-09-17T05:42:07.509Z,9.00
2022-09-17T05:44:34.149Z,9.00
2022-09-17T05:47:00.933Z,9.00
2022-09-17T05:49:27.683Z,9.00
2022-09-17T05:51:54.447Z,9.00
2022-09-17T05:54:21.099Z,9.10
2022-09-17T05:56:47.766Z,9.00
2022-09-17T05:59:15.530Z,9.10
2022-09-17T06:01:42.544Z,9.10
2022-09-17T06:04:09.797Z,9.10
2022-09-17T06:06:37.815Z,9.10
2022-09-17T06:09:05.934Z,9.20
2022-09-17T06:11:32.967Z,9.20
2022-09-17T06:14:00.194Z,9.30
2022-09-17T06:16:27.163Z,9.30
2022-09-17T06:18:58.722Z,9.30
2022-09-17T06:21:25.417Z,9.40
2022-09-17T06:23:52.777Z,9.40
2022-09-17T06:26:19.801Z,9.40
2022-09-17T06:28:46.590Z,9.40
2022-09-17T06:31:13.623Z,9.40
2022-09-17T06:33:41.241Z,9.50
2022-09-17T06:36:13.693Z,9.50
2022-09-17T06:38:41.585Z,9.50
2022-09-17T06:41:08.673Z,9.50
2022-09-17T06:43:35.423Z,9.40
2022-09-17T06:46:05.977Z,9.50
2022-09-17T06:48:35.109Z,9.50
2022-09-17T06:51:04.387Z,9.50
2022-09-17T06:53:32.049Z,9.60
2022-09-17T06:56:05.157Z,9.60
2022-09-17T06:58:33.929Z,9.60
2022-09-17T07:01:01.690Z,9.60
2022-09-17T07:03:29.689Z,9.70
2022-09-17T07:05:57.288Z,9.70
2022-09-17T07:08:24.356Z,9.80
2022-09-17T07:10:51.074Z,9.70
2022-09-17T07:13:18.049Z,9.70
2022-09-17T07:15:55.878Z,9.80
2022-09-17T07:18:23.417Z,9.70
2022-09-17T07:21:01.316Z,9.70
2022-09-17T07:23:30.874Z,9.70
2022-09-17T07:26:00.047Z,9.70
2022-09-17T07:28:28.745Z,9.70
2022-09-17T07:30:56.368Z,9.70
2022-09-17T07:33:26.116Z,9.70
2022-09-17T07:35:58.324Z,9.80
2022-09-17T07:38:25.596Z,9.80
2022-09-17T07:40:57.969Z,9.70
2022-09-17T07:43:26.362Z,10.10
2022-09-17T07:45:53.566Z,10.70
2022-09-17T07:48:21.190Z,11.10
2022-09-17T07:50:48.333Z,11.10
2022-09-17T07:53:15.480Z,10.90
2022-09-17T07:55:42.613Z,10.90
2022-09-17T07:58:09.579Z,11.00
2022-09-17T08:00:36.647Z,11.10
2022-09-17T08:03:03.510Z,11.30
2022-09-17T08:05:32.625Z,11.30
2022-09-17T08:07:59.364Z,11.30
2022-09-17T08:10:27.138Z,11.20
2022-09-17T08:12:58.364Z,11.40
2022-09-17T08:15:26.009Z,11.30
2022-09-17T08:17:53.270Z,11.30
2022-09-17T08:20:20.391Z,11.20
2022-09-17T08:22:50.197Z,11.30
2022-09-17T08:25:17.290Z,11.30
2022-09-17T08:27:44.229Z,11.30
2022-09-17T08:30:11.219Z,11.60
2022-09-17T08:32:38.317Z,11.90
2022-09-17T08:35:05.280Z,12.10
2022-09-17T08:37:31.987Z,12.30
2022-09-17T08:39:58.767Z,12.10
2022-09-17T08:42:51.521Z,12.30
2022-09-17T08:45:19.313Z,12.50
2022-09-17T08:47:48.203Z,12.30
2022-09-17T08:50:27.771Z,12.10
2022-09-17T08:53:17.808Z,12.00
2022-09-17T08:56:00.138Z,11.80
2022-09-17T08:58:40.375Z,11.60
2022-09-17T09:01:14.406Z,11.50
2022-09-17T09:04:03.877Z,11.30
2022-09-17T09:06:37.787Z,11.10
2022-09-17T09:09:15.408Z,11.20
2022-09-17T09:11:44.067Z,11.30
2022-09-17T09:14:18.376Z,11.30
2022-09-17T09:16:45.902Z,11.20
2022-09-17T09:19:21.446Z,11.20
2022-09-17T09:22:26.706Z,11.10
2022-09-17T09:25:23.398Z,11.00
2022-09-17T09:28:21.068Z,10.90
2022-09-17T09:31:18.495Z,10.70
2022-09-17T09:33:48.067Z,10.70
2022-09-17T09:36:21.554Z,10.70
2022-09-17T09:39:04.262Z,10.70
2022-09-17T09:41:43.848Z,10.60
2022-09-17T09:44:15.766Z,10.50
2022-09-17T09:47:04.856Z,10.30
2022-09-17T09:49:53.577Z,10.30
2022-09-17T09:52:41.079Z,10.20
2022-09-17T09:55:35.501Z,10.10
2022-09-17T09:58:12.457Z,9.90
2022-09-17T10:00:42.505Z,9.70
2022-09-17T10:03:18.738Z,9.60
2022-09-17T10:06:03.195Z,9.60
2022-09-17T10:08:37.145Z,9.60
2022-09-17T10:11:25.841Z,9.70
2022-09-17T10:14:24.757Z,9.70
2022-09-17T10:17:21.569Z,9.60
2022-09-17T10:20:13.616Z,9.50
2022-09-17T10:22:46.172Z,9.50
2022-09-17T10:25:32.321Z,9.60
2022-09-17T10:28:01.910Z,9.70
2022-09-17T10:30:29.069Z,9.80
2022-09-17T10:33:23.445Z,9.70
2022-09-17T10:36:01.881Z,9.60
2022-09-17T10:38:38.307Z,9.60
2022-09-17T10:41:24.780Z,9.60
2022-09-17T10:43:52.198Z,9.60
2022-09-17T10:46:28.883Z,9.60
2022-09-17T10:49:35.227Z,9.60
2022-09-17T10:52:13.702Z,9.60
2022-09-17T10:55:10.322Z,9.70
2022-09-17T10:58:24.568Z,9.80
2022-09-17T11:01:16.133Z,9.80
2022-09-17T11:04:01.372Z,10.00
2022-09-17T11:06:52.815Z,10.00
2022-09-17T11:09:27.399Z,10.00
2022-09-17T11:12:16.159Z,10.20
2022-09-17T11:15:06.361Z,10.30
2022-09-17T11:17:46.722Z,10.30
2022-09-17T11:20:47.195Z,10.30
2022-09-17T11:23:32.041Z,10.30
2022-09-17T11:26:20.266Z,10.30
2022-09-17T11:28:49.880Z,10.20
2022-09-17T11:31:47.557Z,10.30
2022-09-17T11:34:32.953Z,10.10
2022-09-17T11:37:24.001Z,9.90
2022-09-17T11:39:58.911Z,9.80
2022-09-17T11:42:31.961Z,9.60
2022-09-17T11:45:02.457Z,9.10
2022-09-17T11:47:36.033Z,8.90
2022-09-17T11:50:23.936Z,8.90
2022-09-17T11:53:38.041Z,8.90
2022-09-17T11:56:38.604Z,8.70
2022-09-17T11:59:14.681Z,8.70
2022-09-17T12:01:51.454Z,8.70
2022-09-17T12:04:37.756Z,8.80
2022-09-17T12:07:42.642Z,9.20
2022-09-17T12:10:36.538Z,9.60
2022-09-17T12:13:14.454Z,9.90
2022-09-17T12:15:51.052Z,10.20
2022-09-17T12:18:32.877Z,10.40
2022-09-17T12:21:05.098Z,10.30
2022-09-17T12:23:38.821Z,10.30
2022-09-17T12:26:17.756Z,10.40
2022-09-17T12:29:04.931Z,10.60
2022-09-17T12:31:49.087Z,11.00
2022-09-17T12:34:43.349Z,11.20
2022-09-17T12:37:23.647Z,11.10
2022-09-17T12:39:56.197Z,11.00
2022-09-17T12:42:42.837Z,10.90
2022-09-17T12:45:27.989Z,10.90
2022-09-17T12:48:12.661Z,11.00
2022-09-17T12:51:19.699Z,11.30
2022-09-17T12:54:10.769Z,11.90
2022-09-17T12:57:04.674Z,12.30
2022-09-17T12:59:33.940Z,12.70
2022-09-17T13:02:12.060Z,12.80
2022-09-17T13:05:13.084Z,12.80
2022-09-17T13:07:48.780Z,12.80
2022-09-17T13:10:40.849Z,12.30
2022-09-17T13:13:34.653Z,12.00
2022-09-17T13:16:05.967Z,11.90
2022-09-17T13:19:15.059Z,11.90
2022-09-17T13:22:01.161Z,12.00
2022-09-17T13:24:31.124Z,11.80
2022-09-17T13:27:01.207Z,12.00
2022-09-17T13:29:48.969Z,12.00
2022-09-17T13:32:33.939Z,12.10
2022-09-17T13:35:09.797Z,12.40
2022-09-17T13:37:41.414Z,12.90
2022-09-17T13:40:22.467Z,13.20
2022-09-17T13:42:55.468Z,12.70
2022-09-17T13:45:24.292Z,12.60
2022-09-17T13:47:58.097Z,13.00
2022-09-17T13:50:27.193Z,13.40
2022-09-17T13:52:56.850Z,13.70
2022-09-17T13:55:37.288Z,13.90
2022-09-17T13:58:13.718Z,13.90
2022-09-17T14:00:49.386Z,14.20
2022-09-17T14:03:31.475Z,14.40
2022-09-17T14:06:18.862Z,14.20
2022-09-17T14:08:45.644Z,13.50
2022-09-17T14:11:26.416Z,13.20
2022-09-17T14:14:05.626Z,13.00
2022-09-17T14:16:52.000Z,13.00
2022-09-17T14:19:25.590Z,12.80
2022-09-17T14:21:56.112Z,12.80
2022-09-17T14:24:44.177Z,13.20
2022-09-17T14:27:31.940Z,13.90
2022-09-17T14:30:10.913Z,14.00
2022-09-17T14:32:53.791Z,13.80
2022-09-17T14:35:39.088Z,13.90
2022-09-17T14:38:10.474Z,14.00
2022-09-17T14:40:44.950Z,14.00
2022-09-17T14:43:22.157Z,13.70
2022-09-17T14:45:52.860Z,13.20
2022-09-17T14:48:26.072Z,12.80
2022-09-17T14:50:52.935Z,12.70
2022-09-17T14:53:21.093Z,12.50
2022-09-17T14:55:50.201Z,12.40
2022-09-17T14:58:35.384Z,12.50
2022-09-17T15:01:02.210Z,12.60
2022-09-17T15:03:28.979Z,12.70
2022-09-17T15:05:55.754Z,12.60
2022-09-17T15:08:30.261Z,12.50
2022-09-17T15:11:00.531Z,12.40
2022-09-17T15:13:40.336Z,12.30
2022-09-17T15:16:27.435Z,12.20
2022-09-17T15:19:06.769Z,12.00
2022-09-17T15:21:45.293Z,11.90
2022-09-17T15:24:20.699Z,11.80
2022-09-17T15:26:51.879Z,11.80
2022-09-17T15:29:22.915Z,11.70
2022-09-17T15:31:49.894Z,11.70
2022-09-17T15:34:16.808Z,11.70
2022-09-17T15:37:07.413Z,11.70
2022-09-17T15:39:42.733Z,11.70
2022-09-17T15:42:22.834Z,11.70
2022-09-17T15:44:50.257Z,11.60
2022-09-17T15:48:01.729Z,11.50
2022-09-17T15:50:34.052Z,11.30
2022-09-17T15:53:09.438Z,11.20
2022-09-17T15:55:44.512Z,11.20
2022-09-17T15:58:40.676Z,11.00
2022-09-17T16:01:17.043Z,10.90
2022-09-17T16:03:43.947Z,10.90
2022-09-17T16:06:19.814Z,10.90
2022-09-17T16:08:47.765Z,10.80
2022-09-17T16:11:15.199Z,10.80
2022-09-17T16:13:42.244Z,10.80
2022-09-17T16:16:16.509Z,10.70
2022-09-17T16:18:43.264Z,10.70
2022-09-17T16:21:14.993Z,10.60
2022-09-17T16:23:42.312Z,10.60
2022-09-17T16:26:41.942Z,10.60
2022-09-17T16:29:16.213Z,10.60
2022-09-17T16:31:44.655Z,10.50
2022-09-17T16:34:11.515Z,10.40
2022-09-17T16:36:38.948Z,10.40
2022-09-17T16:39:05.821Z,10.40
2022-09-17T16:41:32.539Z,10.40
2022-09-17T16:43:59.522Z,10.30
2022-09-17T16:46:26.524Z,10.30
2022-09-17T16:48:53.389Z,10.30
2022-09-17T16:51:20.138Z,10.20
2022-09-17T16:53:47.008Z,10.10
2022-09-17T16:56:15.397Z,10.10
2022-09-17T16:58:42.387Z,10.10
2022-09-17T17:01:11.037Z,10.10
2022-09-17T17:03:38.377Z,10.00
2022-09-17T17:06:05.677Z,10.00
2022-09-17T17:08:33.502Z,10.00
2022-09-17T17:11:00.965Z,9.90
2022-09-17T17:13:27.926Z,9.80
2022-09-17T17:15:55.092Z,9.70
2022-09-17T17:18:22.900Z,9.60
2022-09-17T17:20:49.987Z,9.60
2022-09-17T17:23:17.086Z,9.50
2022-09-17T17:25:43.983Z,9.40
2022-09-17T17:28:10.953Z,9.40
2022-09-17T17:30:38.550Z,9.30
2022-09-17T17:33:05.537Z,9.30
2022-09-17T17:35:32.534Z,9.20
2022-09-17T17:37:59.345Z,9.20
2022-09-17T17:40:26.772Z,9.10
2022-09-17T17:42:54.819Z,9.10
2022-09-17T17:45:22.022Z,9.10
2022-09-17T17:47:49.011Z,9.10
2022-09-17T17:50:15.926Z,9.10
2022-09-17T17:52:47.805Z,9.10
2022-09-17T17:55:15.648Z,9.10
2022-09-17T17:57:42.434Z,9.10
2022-09-17T18:00:11.004Z,9.00
2022-09-17T18:02:38.089Z,9.00
2022-09-17T18:05:05.208Z,9.00
2022-09-17T18:07:32.171Z,9.00
2022-09-17T18:09:58.943Z,9.10
2022-09-17T18:12:27.067Z,9.10
2022-09-17T18:14:53.966Z,9.10
2022-09-17T18:17:20.813Z,9.10
2022-09-17T18:19:47.563Z,9.10
2022-09-17T18:22:14.271Z,9.10
2022-09-17T18:24:40.960Z,9.10
2022-09-17T18:27:07.723Z,9.10
2022-09-17T18:29:34.545Z,9.10
2022-09-17T18:32:01.425Z,9.20
2022-09-17T18:34:28.161Z,9.10
2022-09-17T18:36:54.974Z,9.00
2022-09-17T18:42:09.190Z,8.90
2022-09-17T18:44:36.057Z,8.90
2022-09-17T18:47:03.053Z,8.90
2022-09-17T18:49:29.766Z,8.90
2022-09-17T18:51:56.585Z,8.90
2022-09-17T18:54:23.363Z,8.90
2022-09-17T18:56:50.022Z,8.80
2022-09-17T18:59:16.759Z,8.80
2022-09-17T19:01:43.493Z,8.70
2022-09-17T19:04:11.360Z,8.80
2022-09-17T19:06:38.203Z,8.80
2022-09-17T19:09:05.736Z,8.70
2022-09-17T19:11:33.948Z,8.60
2022-09-17T19:14:01.536Z,8.60
2022-09-17T19:16:28.342Z,8.60
2022-09-17T19:18:55.061Z,8.50
2022-09-17T19:21:21.958Z,8.60
2022-09-17T19:23:50.800Z,8.60
2022-09-17T19:26:20.358Z,8.60
2022-09-17T19:28:47.366Z,8.60
2022-09-17T19:31:16.784Z,8.50
2022-09-17T19:33:44.496Z,8.50
2022-09-17T19:36:14.292Z,8.50
2022-09-17T19:38:41.537Z,8.50
2022-09-17T19:41:14.887Z,8.60
2022-09-17T19:43:42.129Z,8.50
2022-09-17T19:46:14.965Z,8.50
2022-09-17T19:48:56.070Z,8.50
2022-09-17T19:51:25.465Z,8.50
2022-09-17T19:53:53.115Z,8.50
2022-09-17T19:56:22.961Z,8.40
2022-09-17T19:58:50.553Z,8.40
2022-09-17T20:01:18.177Z,8.40
2022-09-17T20:03:46.527Z,8.40
2022-09-17T20:06:15.374Z,8.40
2022-09-17T20:08:53.061Z,8.40
2022-09-17T20:11:21.888Z,8.40
2022-09-17T20:13:48.723Z,8.50
2022-09-17T20:16:21.056Z,8.40
2022-09-17T20:18:48.884Z,8.40
2022-09-17T20:21:25.109Z,8.50
2022-09-17T20:23:52.444Z,8.50
2022-09-17T20:26:19.153Z,8.50
2022-09-17T20:28:47.419Z,8.60
2022-09-17T20:31:23.216Z,8.60
2022-09-17T20:33:55.207Z,8.60
2022-09-17T20:36:24.989Z,8.60
2022-09-17T20:41:39.468Z,8.70
2022-09-17T20:44:07.140Z,8.70
2022-09-17T20:46:34.185Z,8.70
2022-09-17T20:49:01.178Z,8.70
2022-09-17T20:51:29.761Z,8.70
2022-09-17T20:53:57.777Z,8.70
2022-09-17T20:56:27.197Z,8.70
2022-09-17T20:59:25.038Z,8.70
2022-09-17T21:01:53.459Z,8.70
2022-09-17T21:04:21.757Z,8.70
2022-09-17T21:06:52.555Z,8.60
2022-09-17T21:09:19.959Z,8.60
2022-09-17T21:11:48.626Z,8.70
2022-09-17T21:14:17.238Z,8.60
2022-09-17T21:16:44.856Z,8.50
2022-09-17T21:19:13.375Z,8.50
2022-09-17T21:21:40.078Z,8.40
2022-09-17T21:24:07.497Z,8.40
2022-09-17T21:26:34.515Z,8.40
2022-09-17T21:29:05.861Z,8.20
2022-09-17T21:31:34.571Z,8.10
2022-09-17T21:34:03.557Z,8.00
2022-09-17T21:36:33.727Z,8.00
2022-09-17T21:39:02.951Z,7.90
2022-09-17T21:41:30.091Z,7.90
2022-09-17T21:43:57.046Z,7.90
2022-09-17T21:46:26.421Z,7.90
2022-09-17T21:48:56.781Z,7.90
2022-09-17T21:51:25.963Z,7.90
2022-09-17T21:53:54.841Z,7.80
2022-09-17T21:56:22.242Z,7.80
2022-09-17T21:58:54.650Z,7.80
2022-09-17T22:01:24.868Z,7.80
2022-09-17T22:03:51.842Z,7.80
2022-09-17T22:06:21.479Z,7.80
2022-09-17T22:08:49.743Z,7.80
2022-09-17T22:11:19.166Z,7.80
2022-09-17T22:14:10.801Z,7.80
2022-09-17T22:16:41.820Z,7.70
2022-09-17T22:19:09.561Z,7.70
2022-09-17T22:21:42.338Z,7.70
2022-09-17T22:24:10.765Z,7.70
2022-09-17T22:26:40.581Z,7.70
2022-09-17T22:29:11.361Z,7.70
2022-09-17T22:31:38.988Z,7.60
2022-09-17T22:34:10.750Z,7.60
2022-09-17T22:36:37.656Z,7.60
2022-09-17T22:39:05.432Z,7.60
2022-09-17T22:41:35.111Z,7.60
2022-09-17T22:44:13.629Z,7.50
2022-09-17T22:46:40.961Z,7.50
2022-09-17T22:49:09.907Z,7.50
2022-09-17T22:51:37.182Z,7.50
2022-09-17T22:54:04.530Z,7.50
2022-09-17T22:56:31.422Z,7.50
2022-09-17T22:58:59.016Z,7.60
2022-09-17T23:01:31.148Z,7.60
2022-09-17T23:03:59.733Z,7.50
2022-09-17T23:06:28.756Z,7.40
2022-09-17T23:08:55.805Z,7.40
2022-09-17T23:11:28.523Z,7.30
2022-09-17T23:13:57.760Z,7.30
2022-09-17T23:16:25.493Z,7.30
2022-09-17T23:18:52.450Z,7.20
2022-09-17T23:21:20.082Z,7.20
2022-09-17T23:23:50.010Z,7.20
2022-09-17T23:26:20.691Z,7.20
2022-09-17T23:28:48.141Z,7.20
2022-09-17T23:31:45.919Z,7.20
2022-09-17T23:34:12.966Z,7.20
2022-09-17T23:36:40.189Z,7.20
2022-09-17T23:39:09.216Z,7.30
2022-09-17T23:41:39.873Z,7.30
2022-09-17T23:44:14.571Z,7.30
2022-09-17T23:46:42.774Z,7.30
2022-09-17T23:49:12.365Z,7.30
2022-09-17T23:51:39.337Z,7.30
2022-09-17T23:54:07.232Z,7.30
2022-09-17T23:56:34.953Z,7.30
2022-09-17T23:59:02.352Z,7.30
